createdAt,value
2023-04-18T00:01:22.050Z,3.80
2023-04-18T00:03:51.371Z,2.80
2023-04-18T00:06:22.694Z,3.60
2023-04-18T00:08:51.294Z,3.70
2023-04-18T00:11:19.958Z,3.70
2023-04-18T00:13:48.651Z,4.30
2023-04-18T00:16:17.373Z,3.90
2023-04-18T00:18:46.420Z,4.60
2023-04-18T00:21:15.194Z,4.50
2023-04-18T00:23:44.085Z,3.20
2023-04-18T00:26:13.193Z,4.70
2023-04-18T00:28:43.059Z,4.70
2023-04-18T00:31:12.628Z,3.70
2023-04-18T00:33:41.396Z,3.40
2023-04-18T00:36:10.992Z,3.10
2023-04-18T00:38:39.787Z,3.80
2023-04-18T00:41:09.400Z,4.70
2023-04-18T00:43:37.866Z,3.50
2023-04-18T00:46:06.608Z,4.20
2023-04-18T00:48:36.367Z,3.00
2023-04-18T00:51:06.773Z,3.90
2023-04-18T00:53:35.903Z,4.50
2023-04-18T00:56:06.523Z,4.80
2023-04-18T00:58:36.126Z,4.80
2023-04-18T01:01:04.792Z,4.10
2023-04-18T01:03:35.077Z,3.20
2023-04-18T01:06:04.431Z,3.50
2023-04-18T01:08:35.766Z,2.80
2023-04-18T01:11:04.463Z,2.80
2023-04-18T01:13:33.131Z,3.10
2023-04-18T01:16:01.861Z,2.70
2023-04-18T01:18:31.953Z,2.80
2023-04-18T01:21:00.734Z,2.40
2023-04-18T01:23:29.719Z,2.30
2023-04-18T01:25:58.418Z,2.10
2023-04-18T01:28:28.037Z,2.70
2023-04-18T01:30:59.166Z,2.70
2023-04-18T01:33:27.940Z,2.20
2023-04-18T01:35:56.522Z,2.30
2023-04-18T01:38:25.208Z,2.40
2023-04-18T01:40:56.053Z,2.40
2023-04-18T01:43:24.729Z,2.60
2023-04-18T01:45:53.514Z,2.80
2023-04-18T01:48:22.193Z,2.70
2023-04-18T01:50:51.086Z,1.80
2023-04-18T01:53:19.662Z,1.90
2023-04-18T01:55:50.823Z,3.30
2023-04-18T01:58:23.607Z,2.30
2023-04-18T02:00:52.947Z,2.20
2023-04-18T02:03:23.278Z,2.20
2023-04-18T02:05:54.348Z,2.40
2023-04-18T02:08:23.038Z,2.00
2023-04-18T02:10:51.612Z,1.80
2023-04-18T02:13:20.503Z,1.60
2023-04-18T02:15:49.189Z,1.70
2023-04-18T02:18:18.720Z,2.20
2023-04-18T02:20:49.220Z,2.20
2023-04-18T02:23:18.282Z,2.00
2023-04-18T02:25:47.019Z,2.00
2023-04-18T02:28:15.792Z,2.40
2023-04-18T02:30:44.594Z,2.90
2023-04-18T02:33:13.377Z,2.20
2023-04-18T02:35:42.244Z,2.90
2023-04-18T02:38:11.142Z,2.70
2023-04-18T02:40:39.828Z,2.20
2023-04-18T02:43:08.570Z,2.20
2023-04-18T02:45:37.513Z,2.40
2023-04-18T02:48:06.413Z,3.10
2023-04-18T02:50:36.112Z,2.90
2023-04-18T02:53:05.101Z,1.50
2023-04-18T02:55:45.052Z,1.80
2023-04-18T02:58:13.818Z,1.80
2023-04-18T03:00:51.002Z,1.90
2023-04-18T03:03:49.182Z,1.70
2023-04-18T03:06:40.596Z,2.20
2023-04-18T03:09:09.595Z,2.20
2023-04-18T03:11:41.564Z,1.70
2023-04-18T03:14:10.454Z,1.90
2023-04-18T03:16:47.223Z,2.20
2023-04-18T03:19:17.834Z,2.10
2023-04-18T03:21:46.735Z,2.20
2023-04-18T03:24:15.422Z,1.80
2023-04-18T03:26:46.412Z,1.90
2023-04-18T03:29:17.614Z,2.10
2023-04-18T03:31:47.263Z,1.80
2023-04-18T03:34:16.404Z,1.80
2023-04-18T03:36:48.004Z,2.40
2023-04-18T03:39:18.371Z,1.80
2023-04-18T03:41:47.619Z,2.00
2023-04-18T03:44:16.983Z,2.30
2023-04-18T03:46:46.012Z,2.50
2023-04-18T03:49:14.748Z,3.30
2023-04-18T03:51:50.091Z,2.10
2023-04-18T03:54:19.824Z,2.90
2023-04-18T03:56:51.490Z,3.30
2023-04-18T03:59:20.985Z,2.50
2023-04-18T04:01:51.437Z,2.80
2023-04-18T04:04:20.346Z,2.80
2023-04-18T04:06:49.274Z,4.20
2023-04-18T04:09:18.169Z,3.70
2023-04-18T04:11:47.152Z,3.90
2023-04-18T04:14:16.961Z,3.20
2023-04-18T04:16:48.020Z,3.90
2023-04-18T04:19:18.419Z,3.20
2023-04-18T04:22:00.147Z,4.50
2023-04-18T04:24:29.444Z,5.10
2023-04-18T04:26:59.226Z,4.10
2023-04-18T04:29:29.523Z,4.10
2023-04-18T04:32:00.003Z,3.40
2023-04-18T04:34:37.775Z,3.40
2023-04-18T04:37:08.818Z,3.90
2023-04-18T04:39:43.631Z,4.80
2023-04-18T04:42:41.611Z,5.60
2023-04-18T04:45:17.969Z,4.20
2023-04-18T04:47:48.022Z,4.20
2023-04-18T04:50:18.608Z,4.00
2023-04-18T04:52:47.511Z,4.30
2023-04-18T04:55:17.633Z,4.10
2023-04-18T04:57:46.311Z,3.80
2023-04-18T05:00:29.306Z,3.30
2023-04-18T05:02:58.107Z,3.60
2023-04-18T05:05:27.407Z,4.30
2023-04-18T05:07:56.115Z,2.90
2023-04-18T05:10:24.674Z,4.60
2023-04-18T05:12:53.357Z,4.60
2023-04-18T05:15:23.793Z,4.60
2023-04-18T05:17:52.467Z,4.70
2023-04-18T05:20:21.153Z,4.40
2023-04-18T05:22:50.151Z,5.20
2023-04-18T05:25:19.453Z,3.90
2023-04-18T05:27:48.238Z,3.60
2023-04-18T05:30:17.015Z,3.40
2023-04-18T05:32:45.922Z,3.70
2023-04-18T05:35:14.896Z,3.30
2023-04-18T05:37:43.687Z,3.60
2023-04-18T05:40:12.985Z,3.90
2023-04-18T05:42:41.790Z,3.30
2023-04-18T05:45:10.802Z,4.10
2023-04-18T05:47:39.582Z,3.70
2023-04-18T05:50:09.293Z,3.30
2023-04-18T05:52:39.380Z,3.80
2023-04-18T05:55:08.466Z,4.20
2023-04-18T05:57:37.158Z,3.20
2023-04-18T06:00:07.507Z,3.80
2023-04-18T06:02:41.799Z,3.10
2023-04-18T06:05:10.933Z,4.90
2023-04-18T06:07:39.816Z,3.60
2023-04-18T06:10:11.750Z,3.70
2023-04-18T06:12:40.945Z,3.40
2023-04-18T06:15:10.817Z,2.50
2023-04-18T06:17:39.717Z,3.20
2023-04-18T06:20:10.225Z,3.30
2023-04-18T06:22:38.961Z,3.80
2023-04-18T06:25:10.712Z,3.00
2023-04-18T06:27:39.612Z,4.00
2023-04-18T06:30:08.838Z,2.40
2023-04-18T06:32:37.527Z,2.10
2023-04-18T06:35:07.109Z,2.70
2023-04-18T06:37:35.869Z,3.20
2023-04-18T06:40:05.421Z,3.60
2023-04-18T06:42:34.381Z,3.00
2023-04-18T06:45:04.378Z,3.30
2023-04-18T06:47:33.537Z,3.00
2023-04-18T06:50:02.270Z,2.80
2023-04-18T06:52:30.957Z,3.00
2023-04-18T06:55:00.857Z,6.80
2023-04-18T06:57:29.470Z,2.60
2023-04-18T06:59:58.337Z,2.80
2023-04-18T07:02:27.255Z,3.70
2023-04-18T07:04:56.103Z,2.10
2023-04-18T07:07:26.949Z,1.90
2023-04-18T07:09:56.141Z,2.10
2023-04-18T07:12:24.828Z,2.50
2023-04-18T07:14:54.637Z,2.50
2023-04-18T07:17:23.332Z,2.10
2023-04-18T07:19:51.943Z,4.00
2023-04-18T07:22:20.786Z,2.40
2023-04-18T07:24:49.478Z,2.90
2023-04-18T07:27:18.048Z,2.20
2023-04-18T07:29:46.754Z,4.50
2023-04-18T07:32:15.746Z,3.80
2023-04-18T07:34:45.355Z,3.40
2023-04-18T07:37:15.024Z,2.30
2023-04-18T07:39:43.937Z,2.30
2023-04-18T07:42:12.725Z,1.90
2023-04-18T07:44:41.532Z,3.60
2023-04-18T07:47:13.279Z,3.40
2023-04-18T07:49:41.960Z,2.80
2023-04-18T07:52:11.062Z,2.50
2023-04-18T07:54:39.842Z,4.40
2023-04-18T07:57:08.626Z,2.60
2023-04-18T07:59:37.411Z,2.30
2023-04-18T08:02:06.313Z,2.40
2023-04-18T08:04:35.400Z,2.20
2023-04-18T08:07:04.290Z,5.00
2023-04-18T08:09:33.385Z,2.50
2023-04-18T08:12:03.021Z,1.30
2023-04-18T08:14:31.784Z,2.20
2023-04-18T08:17:00.477Z,1.70
2023-04-18T08:19:29.353Z,4.50
2023-04-18T08:22:09.734Z,1.90
2023-04-18T08:24:39.145Z,2.40
2023-04-18T08:27:07.788Z,2.30
2023-04-18T08:29:36.687Z,1.40
2023-04-18T08:32:09.006Z,1.90
2023-04-18T08:34:38.691Z,1.70
2023-04-18T08:37:07.749Z,2.70
2023-04-18T08:39:36.639Z,2.00
2023-04-18T08:42:05.535Z,2.10
2023-04-18T08:44:34.220Z,2.00
2023-04-18T08:47:03.458Z,2.40
2023-04-18T08:49:32.190Z,1.30
2023-04-18T08:52:01.596Z,2.00
2023-04-18T08:54:31.122Z,1.80
2023-04-18T08:57:11.777Z,1.70
2023-04-18T08:59:43.821Z,2.00
2023-04-18T09:02:13.505Z,2.00
2023-04-18T09:04:49.605Z,1.90
2023-04-18T09:07:31.089Z,1.60
2023-04-18T09:09:59.877Z,2.10
2023-04-18T09:12:29.849Z,2.10
2023-04-18T09:15:23.909Z,1.60
2023-04-18T09:17:54.539Z,1.80
2023-04-18T09:20:41.611Z,1.50
2023-04-18T09:23:15.317Z,1.90
2023-04-18T09:25:47.208Z,2.50
2023-04-18T09:28:30.204Z,1.90
2023-04-18T09:31:13.668Z,1.80
2023-04-18T09:33:54.886Z,1.40
2023-04-18T09:36:31.893Z,2.40
2023-04-18T09:39:00.874Z,1.70
2023-04-18T09:41:31.319Z,2.10
2023-04-18T09:44:15.062Z,1.90
2023-04-18T09:46:47.670Z,2.20
2023-04-18T09:49:18.049Z,2.00
2023-04-18T09:51:47.450Z,1.60
2023-04-18T09:54:16.945Z,1.90
2023-04-18T09:56:46.439Z,2.20
2023-04-18T09:59:19.823Z,2.20
2023-04-18T10:01:50.118Z,2.20
2023-04-18T10:04:19.380Z,2.20
2023-04-18T10:06:48.676Z,2.20
2023-04-18T10:09:17.672Z,2.00
2023-04-18T10:11:46.664Z,1.70
2023-04-18T10:14:15.783Z,2.70
2023-04-18T10:16:50.399Z,2.00
2023-04-18T10:19:29.915Z,2.70
2023-04-18T10:22:01.250Z,2.30
2023-04-18T10:24:54.872Z,5.10
2023-04-18T10:27:57.993Z,5.90
2023-04-18T10:30:40.388Z,1.80
2023-04-18T10:33:32.432Z,2.50
2023-04-18T10:36:12.774Z,3.40
2023-04-18T10:38:50.051Z,2.30
2023-04-18T10:41:23.831Z,2.20
2023-04-18T10:44:20.021Z,1.40
2023-04-18T10:46:49.037Z,2.00
2023-04-18T10:49:27.425Z,1.60
2023-04-18T10:52:00.802Z,1.90
2023-04-18T10:54:32.494Z,2.50
2023-04-18T10:57:02.294Z,3.10
2023-04-18T10:59:32.352Z,1.80
2023-04-18T11:02:19.961Z,1.30
2023-04-18T11:04:55.904Z,1.50
2023-04-18T11:07:41.566Z,1.80
2023-04-18T11:10:10.572Z,2.00
2023-04-18T11:12:40.590Z,2.20
2023-04-18T11:15:14.836Z,1.70
2023-04-18T11:17:44.280Z,1.90
2023-04-18T11:20:15.293Z,3.10
2023-04-18T11:22:52.048Z,3.90
2023-04-18T11:25:27.102Z,2.10
2023-04-18T11:28:02.162Z,1.90
2023-04-18T11:30:38.383Z,1.60
2023-04-18T11:35:38.641Z,3.30
2023-04-18T11:38:07.937Z,1.60
2023-04-18T11:40:37.275Z,1.40
2023-04-18T11:43:07.087Z,1.70
2023-04-18T11:45:43.273Z,2.20
2023-04-18T11:48:12.037Z,2.20
2023-04-18T11:50:40.926Z,1.90
2023-04-18T11:53:09.628Z,2.20
2023-04-18T11:55:38.537Z,2.00
2023-04-18T11:58:07.492Z,2.30
2023-04-18T12:00:39.916Z,1.60
2023-04-18T12:03:16.075Z,2.20
2023-04-18T12:05:45.533Z,1.50
2023-04-18T12:08:19.593Z,1.60
2023-04-18T12:10:52.121Z,2.10
2023-04-18T12:13:33.214Z,1.90
2023-04-18T12:16:02.552Z,1.70
2023-04-18T12:18:31.788Z,2.10
2023-04-18T12:21:02.743Z,2.80
2023-04-18T12:23:42.903Z,1.90
2023-04-18T12:26:18.736Z,2.30
2023-04-18T12:28:51.413Z,4.20
2023-04-18T12:31:22.098Z,1.80
2023-04-18T12:33:51.236Z,2.10
2023-04-18T12:36:22.694Z,2.50
2023-04-18T12:38:51.783Z,2.50
2023-04-18T12:41:21.080Z,2.50
2023-04-18T12:43:50.284Z,2.80
2023-04-18T12:46:19.111Z,1.80
2023-04-18T12:48:47.843Z,1.80
2023-04-18T12:51:17.351Z,2.30
2023-04-18T12:53:46.250Z,2.50
2023-04-18T12:56:15.744Z,2.20
2023-04-18T12:58:44.460Z,3.60
2023-04-18T13:01:14.548Z,2.00
2023-04-18T13:03:43.656Z,2.40
2023-04-18T13:06:12.945Z,2.90
2023-04-18T13:08:41.628Z,2.00
2023-04-18T13:11:10.415Z,3.10
2023-04-18T13:13:39.004Z,1.80
2023-04-18T13:16:08.496Z,1.60
2023-04-18T13:18:37.401Z,1.80
2023-04-18T13:21:06.603Z,2.20
2023-04-18T13:23:35.375Z,2.20
2023-04-18T13:26:04.278Z,2.10
2023-04-18T13:28:32.955Z,2.00
2023-04-18T13:31:02.483Z,1.80
2023-04-18T13:33:31.060Z,2.30
2023-04-18T13:35:59.836Z,1.80
2023-04-18T13:38:31.478Z,2.30
2023-04-18T13:41:11.597Z,1.90
2023-04-18T13:43:42.788Z,1.90
2023-04-18T13:46:11.919Z,2.30
2023-04-18T13:48:40.871Z,1.90
2023-04-18T13:51:09.443Z,2.40
2023-04-18T13:53:38.147Z,2.40
2023-04-18T13:56:07.807Z,4.00
2023-04-18T13:58:36.841Z,3.00
2023-04-18T14:01:05.642Z,1.90
2023-04-18T14:03:35.629Z,2.00
2023-04-18T14:06:06.992Z,2.10
2023-04-18T14:08:35.645Z,3.20
2023-04-18T14:11:04.362Z,1.90
2023-04-18T14:13:33.034Z,2.10
2023-04-18T14:16:01.669Z,1.70
2023-04-18T14:18:30.618Z,1.30
2023-04-18T14:20:59.698Z,2.00
2023-04-18T14:23:28.492Z,1.70
2023-04-18T14:25:57.186Z,2.00
2023-04-18T14:28:26.902Z,2.00
2023-04-18T14:30:58.213Z,2.70
2023-04-18T14:33:27.139Z,2.90
2023-04-18T14:35:55.714Z,2.10
2023-04-18T14:38:24.403Z,1.90
2023-04-18T14:40:52.980Z,1.70
2023-04-18T14:43:22.006Z,2.50
2023-04-18T14:45:50.757Z,4.80
2023-04-18T14:48:19.609Z,2.30
2023-04-18T14:50:57.961Z,2.60
2023-04-18T14:53:27.601Z,1.90
2023-04-18T14:55:56.758Z,2.10
2023-04-18T14:58:25.847Z,2.40
2023-04-18T15:00:54.632Z,2.70
2023-04-18T15:03:23.526Z,2.10
2023-04-18T15:05:53.672Z,2.20
2023-04-18T15:08:22.823Z,2.50
2023-04-18T15:10:51.536Z,2.50
2023-04-18T15:13:20.637Z,1.90
2023-04-18T15:15:53.604Z,2.40
2023-04-18T15:18:22.802Z,2.30
2023-04-18T15:20:51.872Z,2.60
2023-04-18T15:23:20.703Z,2.30
2023-04-18T15:25:49.387Z,2.30
2023-04-18T15:28:19.715Z,2.50
2023-04-18T15:30:48.685Z,2.20
2023-04-18T15:33:19.844Z,2.50
2023-04-18T15:35:48.548Z,3.30
2023-04-18T15:38:17.303Z,3.20
2023-04-18T15:40:46.228Z,3.90
2023-04-18T15:43:17.446Z,4.10
2023-04-18T15:45:47.218Z,2.30
2023-04-18T15:48:15.825Z,3.80
2023-04-18T15:50:50.382Z,3.70
2023-04-18T15:53:19.197Z,2.80
2023-04-18T15:55:48.039Z,2.30
2023-04-18T15:58:16.823Z,2.40
2023-04-18T16:00:46.616Z,1.90
2023-04-18T16:03:15.396Z,2.10
2023-04-18T16:05:44.421Z,2.50
2023-04-18T16:08:13.080Z,2.10
2023-04-18T16:10:41.973Z,3.20
2023-04-18T16:13:10.673Z,2.00
2023-04-18T16:15:41.951Z,2.20
2023-04-18T16:18:11.109Z,3.30
2023-04-18T16:20:39.889Z,2.30
2023-04-18T16:23:08.488Z,2.00
2023-04-18T16:25:37.305Z,2.00
2023-04-18T16:28:06.151Z,2.60
2023-04-18T16:30:34.729Z,2.70
2023-04-18T16:33:04.140Z,2.30
2023-04-18T16:35:33.142Z,3.00
2023-04-18T16:38:02.386Z,3.10
2023-04-18T16:40:32.233Z,2.40
2023-04-18T16:43:02.511Z,2.60
2023-04-18T16:45:31.464Z,2.10
2023-04-18T16:48:00.201Z,2.80
2023-04-18T16:50:29.235Z,2.90
2023-04-18T16:52:57.813Z,3.00
2023-04-18T16:55:27.213Z,2.10
2023-04-18T16:57:56.002Z,4.90
2023-04-18T17:00:25.626Z,3.60
2023-04-18T17:02:58.606Z,2.50
2023-04-18T17:05:27.497Z,2.00
2023-04-18T17:07:56.486Z,2.30
2023-04-18T17:10:25.052Z,2.60
2023-04-18T17:12:53.924Z,2.00
2023-04-18T17:15:22.622Z,2.60
2023-04-18T17:17:51.338Z,2.00
2023-04-18T17:20:20.632Z,3.70
2023-04-18T17:22:49.203Z,4.40
2023-04-18T17:25:18.700Z,3.50
2023-04-18T17:27:47.703Z,2.40
2023-04-18T17:30:16.271Z,2.30
2023-04-18T17:32:46.445Z,1.80
2023-04-18T17:35:15.290Z,2.50
2023-04-18T17:37:43.867Z,2.30
2023-04-18T17:40:13.434Z,3.50
2023-04-18T17:42:42.303Z,4.20
2023-04-18T17:45:11.270Z,2.30
2023-04-18T17:47:41.155Z,3.00
2023-04-18T17:50:10.469Z,2.20
2023-04-18T17:52:40.161Z,2.40
2023-04-18T17:55:09.363Z,2.10
2023-04-18T17:57:38.042Z,2.00
2023-04-18T18:00:11.755Z,3.90
2023-04-18T18:02:43.267Z,3.70
2023-04-18T18:05:15.268Z,4.30
2023-04-18T18:07:48.213Z,3.80
2023-04-18T18:10:19.671Z,3.70
2023-04-18T18:12:49.215Z,4.10
2023-04-18T18:15:18.501Z,4.50
2023-04-18T18:17:50.733Z,4.80
2023-04-18T18:20:20.189Z,4.90
2023-04-18T18:22:48.938Z,5.10
2023-04-18T18:25:17.970Z,3.80
2023-04-18T18:27:47.452Z,3.60
2023-04-18T18:30:16.565Z,4.30
2023-04-18T18:32:46.973Z,4.10
2023-04-18T18:35:16.062Z,3.30
2023-04-18T18:37:44.848Z,3.20
2023-04-18T18:40:13.758Z,3.80
2023-04-18T18:42:42.948Z,3.60
2023-04-18T18:45:12.242Z,5.20
2023-04-18T18:47:41.453Z,5.20
2023-04-18T18:50:10.739Z,4.60
2023-04-18T18:52:43.470Z,4.00
2023-04-18T18:55:12.206Z,3.60
2023-04-18T18:57:40.775Z,4.50
2023-04-18T19:00:11.510Z,4.00
2023-04-18T19:02:40.559Z,4.00
2023-04-18T19:05:10.023Z,4.00
2023-04-18T19:07:38.999Z,3.90
2023-04-18T19:10:09.237Z,4.60
2023-04-18T19:12:38.255Z,3.60
2023-04-18T19:15:07.982Z,4.10
2023-04-18T19:17:36.835Z,4.60
2023-04-18T19:20:06.561Z,4.50
2023-04-18T19:22:35.520Z,4.00
2023-04-18T19:25:05.083Z,3.70
2023-04-18T19:27:36.371Z,3.90
2023-04-18T19:30:05.485Z,4.40
2023-04-18T19:32:34.275Z,4.20
2023-04-18T19:35:02.837Z,4.40
2023-04-18T19:37:31.921Z,4.00
2023-04-18T19:40:00.907Z,4.10
2023-04-18T19:42:29.498Z,4.50
2023-04-18T19:44:59.444Z,4.20
2023-04-18T19:47:36.620Z,4.70
2023-04-18T19:50:06.116Z,4.40
2023-04-18T19:52:34.998Z,4.00
2023-04-18T19:55:04.387Z,4.50
2023-04-18T19:57:43.726Z,3.70
2023-04-18T20:00:13.327Z,3.50
2023-04-18T20:02:43.680Z,3.90
2023-04-18T20:05:13.300Z,3.50
2023-04-18T20:07:42.143Z,3.40
2023-04-18T20:10:11.748Z,3.10
2023-04-18T20:12:40.431Z,2.70
2023-04-18T20:15:09.545Z,2.90
2023-04-18T20:17:38.378Z,3.70
2023-04-18T20:20:09.696Z,3.10
2023-04-18T20:22:40.913Z,3.40
2023-04-18T20:25:09.924Z,3.10
2023-04-18T20:27:38.906Z,3.20
2023-04-18T20:30:09.080Z,3.10
2023-04-18T20:32:37.641Z,3.10
2023-04-18T20:35:09.901Z,3.10
2023-04-18T20:37:39.491Z,2.80
2023-04-18T20:40:09.064Z,3.10
2023-04-18T20:42:39.475Z,3.60
2023-04-18T20:45:11.980Z,3.60
2023-04-18T20:47:42.601Z,3.50
2023-04-18T20:50:11.416Z,3.80
2023-04-18T20:52:43.146Z,3.10
2023-04-18T20:55:12.306Z,3.20
2023-04-18T20:57:41.244Z,3.20
2023-04-18T21:00:10.840Z,3.10
2023-04-18T21:02:39.672Z,3.30
2023-04-18T21:05:09.445Z,4.50
2023-04-18T21:07:38.230Z,4.10
2023-04-18T21:10:07.830Z,4.20
2023-04-18T21:12:36.319Z,3.80
2023-04-18T21:15:05.930Z,3.70
2023-04-18T21:17:34.814Z,3.60
2023-04-18T21:20:03.728Z,3.60
2023-04-18T21:22:32.395Z,3.50
2023-04-18T21:25:01.273Z,3.90
2023-04-18T21:27:30.660Z,3.40
2023-04-18T21:29:59.447Z,3.80
2023-04-18T21:32:28.372Z,3.00
2023-04-18T21:34:58.087Z,3.50
2023-04-18T21:37:26.637Z,3.60
2023-04-18T21:39:55.325Z,4.10
2023-04-18T21:42:23.899Z,3.80
2023-04-18T21:44:52.481Z,4.50
2023-04-18T21:47:21.292Z,5.00
2023-04-18T21:49:50.165Z,4.40
2023-04-18T21:52:18.705Z,4.60
2023-04-18T21:54:47.518Z,4.40
2023-04-18T21:57:16.527Z,3.80
2023-04-18T21:59:45.302Z,3.80
2023-04-18T22:02:14.201Z,3.80
2023-04-18T22:04:44.328Z,4.20
2023-04-18T22:07:13.797Z,3.70
2023-04-18T22:09:42.494Z,4.20
2023-04-18T22:12:11.706Z,4.40
2023-04-18T22:14:41.223Z,4.10
2023-04-18T22:17:10.296Z,4.80
2023-04-18T22:19:40.085Z,4.00
2023-04-18T22:22:08.684Z,3.30
2023-04-18T22:24:37.269Z,3.50
2023-04-18T22:27:06.184Z,4.00
2023-04-18T22:29:34.941Z,3.40
2023-04-18T22:32:03.531Z,3.50
2023-04-18T22:34:32.119Z,3.80
2023-04-18T22:37:01.018Z,3.70
2023-04-18T22:39:31.822Z,3.60
2023-04-18T22:42:00.530Z,3.10
2023-04-18T22:44:29.094Z,3.40
2023-04-18T22:46:57.892Z,3.70
2023-04-18T22:49:28.115Z,4.00
2023-04-18T22:51:57.311Z,4.00
2023-04-18T22:54:26.200Z,4.60
2023-04-18T22:56:54.879Z,3.70
2023-04-18T22:59:23.553Z,4.40
2023-04-18T23:01:52.156Z,3.70
2023-04-18T23:04:21.608Z,3.30
2023-04-18T23:06:50.567Z,3.10
2023-04-18T23:09:19.983Z,3.90
2023-04-18T23:11:48.726Z,3.80
2023-04-18T23:14:17.556Z,3.30
2023-04-18T23:16:46.115Z,3.40
2023-04-18T23:19:14.885Z,3.90
2023-04-18T23:21:43.508Z,4.40
2023-04-18T23:24:12.698Z,3.90
2023-04-18T23:26:41.663Z,3.60
2023-04-18T23:29:10.240Z,3.50
2023-04-18T23:31:38.949Z,4.20
2023-04-18T23:34:07.823Z,3.70
2023-04-18T23:36:37.803Z,3.80
2023-04-18T23:39:07.351Z,3.60
2023-04-18T23:41:36.319Z,3.70
2023-04-18T23:44:04.961Z,3.30
2023-04-18T23:46:35.716Z,3.20
2023-04-18T23:49:05.247Z,3.10
2023-04-18T23:51:33.921Z,3.00
2023-04-18T23:54:02.519Z,3.40
2023-04-18T23:56:31.298Z,3.20
2023-04-18T23:58:59.996Z,2.50
